Cassa de la Selva, Spain
Current Conditions -  °F | °C
As of 3:00 PM on Monday 24 Nov 2014 (Local Time) from LEGE Reporting Station
Scattered Clouds Scattered Clouds  
Wind Chill: 66°   Ceiling: Unl
Heat Index: 66°   Visibility: 6mi
Dew Point: 61°   Wind: 9mph
Humidity: 83%   Direction: 20°NNE
Pressure: 30.03"   Gusts: NA
Location:  41.89°N, 2.88°E
Report Text: LEGE 241400Z 02008KT 340V050 9999 FEW017 SCT085 19/16 Q1017
Loading
Personal Weather Stations






























Interactive Weather Map New forecast layout! Learn more

10-Day Weather Forecast

Advertisements
Track Severe Weather on mobile